Terminal Aerodrome Forecast
Issued by NWS

Home | Current Version | Previous Version | Text Only | Print | Product List | Glossary On
Versions: 1 2 3 4 5 6 7 8 9 10 11 12 13 14 15 16 17 18 19 20
000
FTUS43 KPAH 220822 AAA
TAFCGI
TAF AMD
KCGI 220822Z 2208/2306 06013KT P6SM OVC008
     FM221500 03007KT 4SM BR OVC008 PROB30 2300/2306 4SM -DZ BR
      OVC007=

USA.gov is the U.S. government's official web portal to all federal, state and local government web resources and services.